Main page
METAR-TAF:

METAR-TAF

Airports :

Zaragoza Airport

Zaragoza, Spain

latitude: 41-40N, longitude: 001-01W, elevation: 263 m

Current weather observation

The report was made 30 minutes ago, at 13:00 UTC
Wind 7 kt from the East, varying between North/Northeast and East/Southeast
Temperature 34°C
Humidity 28%
Pressure 1015 hPa
Visibility 10 km or more
no clouds below 1500 m and no cumulonimbus

METAR: LEZG 061300Z 08007KT 030V120 CAVOK 34/13 Q1015

Time: 15:30 (13:30 UTC)

Forecast

The report was made 2 hours and 30 minutes ago, at 11:00 UTC
Forecast valid from 06 at 12 UTC to 07 at 12 UTC
Wind 10 kt from the East/Southeast
Visibility 10 km or more
Few clouds at a height of 6000 ft
Temporary
from 06 at 19 UTC to 06 at 21 UTC
Wind 16 kt from the East/Southeast

TAF: LEZG 061100Z 0612/0712 11010KT 9999 FEW060 TX37/0615Z TN22/0705Z TEMPO 0619/0621 12016KT

Weather observations and forecasts of more than 4000 airports (METAR and TAF reports).

The available stations are represented by yellow and red dots on the map.

Hover mouse over dot to see the name of the station.

Then click to see weather observations and forecasts.

To change the map : click on the green buttons with a black cross to zoom in, on the green button with a dash to zoom out, or on the green arrows for adjacent maps.


METAR-TAF: